Almont, Michigan
Current Conditions -  °F | °C
As of 9:33 PM on Friday 31 Oct 2014 (Local Time) from KD95 Reporting Station
Light Snow Light Snow  
Wind Chill: 22°   Ceiling: 1200
Heat Index: 34°   Visibility: 10mi
Dew Point: 32°   Wind: 20mph
Humidity: 94%   Direction: 10°N
Pressure: 30.12"   Gusts: 26mph
Location:  42.92°N, 83.04°W
Report Text: KD95 010133Z AUTO 01017G23KT 10SM -SN OVC012 01/00 A3012 RMK AO2 T00090000
Loading
Personal Weather Stations






























Interactive Weather Map
Tropical Storm Tracking
New forecast layout! Learn more

10-Day Weather Forecast

Advertisements
Track Severe Weather on mobile